createdAt,value
2022-12-23T00:07:51.294Z,92
2022-12-23T00:17:53.337Z,92
2022-12-23T00:27:55.462Z,92
2022-12-23T00:37:57.235Z,92
2022-12-23T00:58:01.476Z,92
2022-12-23T01:08:03.204Z,92
2022-12-23T01:18:05.575Z,92
2022-12-23T01:28:07.563Z,92
2022-12-23T01:38:09.549Z,92
2022-12-23T01:48:11.779Z,92
2022-12-23T01:58:13.721Z,92
2022-12-23T02:08:16.255Z,92
2022-12-23T02:18:18.771Z,92
2022-12-23T02:28:20.756Z,92
2022-12-23T02:38:23.020Z,92
2022-12-23T02:48:25.030Z,92
2022-12-23T02:58:27.400Z,92
2022-12-23T03:08:29.156Z,92
2022-12-23T03:18:31.777Z,92
2022-12-23T03:28:34.171Z,92
2022-12-23T03:38:36.165Z,92
2022-12-23T03:48:37.782Z,92
2022-12-23T03:58:39.770Z,92
2022-12-23T04:08:41.840Z,92
2022-12-23T04:18:43.841Z,92
2022-12-23T04:28:45.972Z,93
2022-12-23T04:38:47.964Z,93
2022-12-23T04:48:49.795Z,93
2022-12-23T04:58:52.275Z,93
2022-12-23T05:08:54.485Z,93
2022-12-23T05:18:56.962Z,93
2022-12-23T05:28:59.345Z,93
2022-12-23T05:39:01.749Z,93
2022-12-23T05:49:04.234Z,93
2022-12-23T05:59:06.142Z,93
2022-12-23T06:09:08.715Z,93
2022-12-23T06:19:10.586Z,93
2022-12-23T06:29:13.053Z,93
2022-12-23T06:39:15.268Z,93
2022-12-23T06:49:16.969Z,93
2022-12-23T06:59:19.235Z,93
2022-12-23T07:09:21.474Z,93
2022-12-23T07:19:23.270Z,93
2022-12-23T07:29:25.722Z,93
2022-12-23T07:39:27.884Z,93
2022-12-23T07:49:30.335Z,93
2022-12-23T07:59:32.042Z,93
2022-12-23T08:09:34.464Z,93
2022-12-23T08:19:36.867Z,93
2022-12-23T08:39:40.891Z,93
2022-12-23T08:49:43.144Z,93
2022-12-23T08:59:45.053Z,93
2022-12-23T09:09:46.816Z,93
2022-12-23T09:19:52.821Z,93
2022-12-23T09:29:51.300Z,93
2022-12-23T09:39:53.502Z,93
2022-12-23T09:49:55.643Z,93
2022-12-23T09:59:58.134Z,93
2022-12-23T10:10:00.495Z,93
2022-12-23T10:20:02.439Z,93
2022-12-23T10:30:20.211Z,93
2022-12-23T10:40:06.943Z,93
2022-12-23T10:50:09.385Z,93
2022-12-23T11:00:11.519Z,93
2022-12-23T11:10:13.369Z,93
2022-12-23T11:20:15.671Z,93
2022-12-23T11:30:17.813Z,93
2022-12-23T11:40:20.273Z,93
2022-12-23T11:50:22.135Z,93
2022-12-23T12:00:24.376Z,93
2022-12-23T12:10:26.283Z,93
2022-12-23T12:20:28.102Z,93
2022-12-23T12:30:30.141Z,93
2022-12-23T12:40:32.464Z,93
2022-12-23T12:50:34.467Z,93
2022-12-23T13:10:39.263Z,93
2022-12-23T13:20:41.337Z,93
2022-12-23T13:30:43.188Z,93
2022-12-23T13:40:45.270Z,93
2022-12-23T13:50:46.998Z,93
2022-12-23T14:00:49.372Z,93
2022-12-23T14:10:51.077Z,93
2022-12-23T14:20:53.553Z,93
2022-12-23T14:30:55.704Z,93
2022-12-23T14:40:58.232Z,93
2022-12-23T14:51:00.038Z,93
2022-12-23T15:01:01.927Z,93
2022-12-23T15:11:03.926Z,93
2022-12-23T15:21:06.042Z,93
2022-12-23T15:31:08.045Z,93
2022-12-23T15:41:10.449Z,93
2022-12-23T15:51:12.382Z,93
2022-12-23T16:01:14.894Z,93
2022-12-23T16:11:17.060Z,93
2022-12-23T16:21:19.715Z,93
2022-12-23T16:31:22.345Z,94
2022-12-23T16:41:24.589Z,94
2022-12-23T16:51:26.694Z,94
2022-12-23T17:11:31.562Z,94
2022-12-23T17:21:33.308Z,94
2022-12-23T17:31:42.574Z,93
2022-12-23T17:41:45.154Z,93
2022-12-23T17:51:47.294Z,93
2022-12-23T18:01:49.476Z,93
2022-12-23T18:11:51.205Z,92
2022-12-23T18:31:55.741Z,91
2022-12-23T18:52:00.100Z,91
2022-12-23T19:12:03.749Z,92
2022-12-23T19:32:08.044Z,90
2022-12-23T19:42:10.211Z,90
2022-12-23T19:52:12.700Z,90
2022-12-23T20:02:15.066Z,90
2022-12-23T20:12:17.607Z,90
2022-12-23T20:22:19.276Z,90
2022-12-23T20:32:21.415Z,90
2022-12-23T20:42:23.761Z,90
2022-12-23T20:52:26.092Z,90
2022-12-23T21:02:28.015Z,90
2022-12-23T21:12:30.017Z,89
2022-12-23T22:32:46.967Z,89
2022-12-23T22:52:50.958Z,88
2022-12-23T23:02:52.664Z,88
2022-12-23T23:12:54.654Z,88
2022-12-23T23:22:56.810Z,88
2022-12-23T23:32:59.074Z,88
2022-12-23T23:43:01.456Z,88
2022-12-23T23:53:03.237Z,87
